KXNA/XNA METAR and TAF weather

Enter ICAO airport designator
Station Type Date Time Source
KXNA METAR 2020/04/05 05:53 UTC NOAA

KXNA 050553Z AUTO 00000KT 3SM BR OVC003 07/06 A3008 RMK AO2 SLP187 T00670056 10067 20067 400720017 53004


Station Type Date Time Source
KXNA Decoded METAR 2020/04/05 05:53 UTC NOAA

NORTHWEST ARKANSAS REGIONAL, AR, United States (KXNA) 36-17N 94-18W
Apr 05, 2020 - 01:53 AM EDT / 2020.04.05 0553 UTC
Wind: Calm:0
Visibility: 3 mile(s):0
Sky conditions: overcast
Weather: mist
Temperature: 44.1 F (6.7 C)
Dew Point: 42.1 F (5.6 C)
Relative Humidity: 92%
Pressure (altimeter): 30.08 in. Hg (1018 hPa)
Pressure tendency: 0.01 inches (0.4 hPa) higher than three hours ago
ob: KXNA 050553Z AUTO 00000KT 3SM BR OVC003 07/06 A3008 RMK AO2 SLP187 T00670056 10067 20067 400720017 53004
cycle: 6

Station Type Date Time Source
KXNA TAF 2020/04/05 06:36 UTC NOAA

TAF KXNA 050533Z 0506/0606 08003KT 2SM BR OVC003
FM051600 20006KT P6SM OVC012

Example: see airport list